Time;durP1;ratioP1;P1;durP2;ratioP2;P2;SDS_P1;SDS_P2;PMS_P1;PMS_P2;Temp;Humidity;BMP_temperature;BMP_pressure;BME280_temperature;BME280_humidity;BME280_pressure;Samples;Min_cycle;Max_cycle;Signal;HPM_P1;HPM_P2
2021/07/04 00:01:31;;;;;;;3.50;2.70;;;;;;;17.52;96.07;100788.72;5033996;28;20439;-72
2021/07/04 00:03:57;;;;;;;4.60;3.10;;;;;;;17.37;96.92;100785.53;5033569;28;20794;-73
2021/07/04 00:06:24;;;;;;;2.93;2.37;;;;;;;17.36;97.01;100780.41;5033852;28;20855;-72
2021/07/04 00:08:50;;;;;;;1.90;1.70;;;;;;;17.35;96.81;100778.78;5033469;28;21004;-72
2021/07/04 00:11:17;;;;;;;2.70;2.00;;;;;;;17.37;96.41;100781.97;5033388;28;21008;-73
2021/07/04 00:13:45;;;;;;;3.93;2.17;;;;;;;17.36;96.53;100775.72;5033761;28;20474;-73
2021/07/04 00:16:11;;;;;;;3.87;2.73;;;;;;;17.35;96.31;100779.59;5033667;28;20455;-73
2021/07/04 00:18:38;;;;;;;4.17;2.93;;;;;;;17.33;96.76;100781.06;5033650;28;20470;-73
2021/07/04 00:21:07;;;;;;;6.20;2.30;;;;;;;17.32;96.74;100774.78;5033685;28;20516;-73
2021/07/04 00:23:34;;;;;;;2.73;2.50;;;;;;;17.27;97.52;100783.25;5033646;28;20445;-73
2021/07/04 00:26:01;;;;;;;3.40;2.17;;;;;;;17.19;97.76;100766.91;5033773;28;20448;-73
2021/07/04 00:28:27;;;;;;;2.20;2.00;;;;;;;17.11;98.16;100785.03;5039829;28;20470;-73
2021/07/04 00:30:55;;;;;;;4.47;2.53;;;;;;;16.94;98.87;100775.09;5033364;28;20483;-73
2021/07/04 00:33:22;;;;;;;2.53;2.33;;;;;;;17.03;98.55;100773.03;5033466;28;20447;-73
2021/07/04 00:35:49;;;;;;;3.00;2.20;;;;;;;17.10;98.01;100783.44;5033433;28;20447;-73
2021/07/04 00:38:16;;;;;;;2.50;1.90;;;;;;;17.14;97.98;100781.63;5033360;28;20478;-73
2021/07/04 00:40:43;;;;;;;3.80;2.67;;;;;;;17.15;98.20;100783.22;5033385;28;20435;-74
2021/07/04 00:43:09;;;;;;;2.90;2.27;;;;;;;17.14;98.01;100778.91;5033010;28;20824;-73
2021/07/04 00:45:36;;;;;;;3.80;2.40;;;;;;;17.16;98.12;100776.59;5033279;28;20447;-73
2021/07/04 00:48:05;;;;;;;4.10;2.57;;;;;;;17.17;98.13;100769.19;5033065;28;20493;-73
2021/07/04 00:50:32;;;;;;;3.87;2.70;;;;;;;17.17;98.17;100775.44;5033160;28;20479;-73
2021/07/04 00:53:00;;;;;;;4.47;2.70;;;;;;;17.09;98.57;100776.38;5033433;28;20466;-73
2021/07/04 00:55:27;;;;;;;3.87;2.73;;;;;;;17.14;98.61;100776.16;5032866;28;20443;-73
2021/07/04 00:57:54;;;;;;;5.00;2.70;;;;;;;17.10;98.86;100777.97;5033080;28;20478;-73
2021/07/04 01:00:22;;;;;;;3.80;2.47;;;;;;;17.10;99.50;100772.50;5033162;28;20435;-73
2021/07/04 01:02:49;;;;;;;2.90;2.23;;;;;;;17.12;99.47;100775.69;5039194;28;20442;-73
2021/07/04 01:05:19;;;;;;;4.13;2.43;;;;;;;17.14;99.39;100760.53;5039666;28;20442;-73
2021/07/04 01:07:46;;;;;;;3.80;2.90;;;;;;;17.15;99.46;100759.38;5039885;28;20451;-73
2021/07/04 01:10:15;;;;;;;3.83;2.53;;;;;;;17.13;99.59;100761.69;5039616;28;20438;-73
2021/07/04 01:12:43;;;;;;;2.40;2.20;;;;;;;17.15;99.60;100766.78;5039334;28;20936;-72
2021/07/04 01:15:11;;;;;;;3.50;2.30;;;;;;;17.12;99.62;100767.47;5039721;28;20447;-73
2021/07/04 01:17:38;;;;;;;2.53;1.80;;;;;;;17.11;99.82;100766.66;5039560;28;20455;-72
2021/07/04 01:20:09;;;;;;;2.30;2.10;;;;;;;17.12;99.57;100756.53;5039674;28;20435;-72
2021/07/04 01:22:39;;;;;;;3.57;2.30;;;;;;;17.11;99.68;100757.66;5039659;28;20434;-73
2021/07/04 01:25:08;;;;;;;3.87;2.30;;;;;;;17.02;100.00;100759.72;5039782;28;20843;-73
2021/07/04 01:27:35;;;;;;;4.13;2.57;;;;;;;17.06;99.96;100757.91;5039677;28;20459;-72
2021/07/04 01:30:02;;;;;;;2.80;2.20;;;;;;;17.10;99.55;100761.56;5039508;28;20450;-72
2021/07/04 01:32:28;;;;;;;5.80;2.90;;;;;;;17.00;100.00;100760.06;5039432;28;20494;-73
2021/07/04 01:34:54;;;;;;;3.10;2.60;;;;;;;17.09;99.63;100754.47;5039423;28;20454;-73
2021/07/04 01:37:21;;;;;;;3.50;2.43;;;;;;;17.16;99.01;100760.19;5039378;28;20471;-73
2021/07/04 01:39:47;;;;;;;4.23;2.60;;;;;;;17.15;99.26;100751.16;5039698;28;20446;-73
2021/07/04 01:42:15;;;;;;;3.90;2.93;;;;;;;17.20;99.15;100735.66;5039392;28;20442;-72
2021/07/04 01:44:42;;;;;;;2.87;2.03;;;;;;;17.15;99.42;100739.44;5039302;28;20455;-73
2021/07/04 01:47:08;;;;;;;4.77;2.87;;;;;;;17.15;99.67;100747.63;5039088;28;20454;-73
2021/07/04 01:49:35;;;;;;;4.90;3.23;;;;;;;17.21;99.44;100740.78;5039324;28;20431;-72
2021/07/04 01:52:01;;;;;;;4.53;2.47;;;;;;;17.24;99.23;100740.09;5039275;28;20501;-71
2021/07/04 01:54:28;;;;;;;2.60;1.90;;;;;;;17.20;98.55;100744.66;5039308;28;20438;-71
2021/07/04 01:56:55;;;;;;;6.10;2.57;;;;;;;17.20;96.15;100739.19;5039235;28;20445;-71
2021/07/04 01:59:23;;;;;;;2.53;2.23;;;;;;;17.15;95.10;100736.69;5034782;28;20464;-71
2021/07/04 02:01:50;;;;;;;3.40;2.07;;;;;;;17.04;95.54;100735.53;5019147;28;20934;-71
2021/07/04 02:04:16;;;;;;;3.07;2.50;;;;;;;16.98;95.72;100737.69;5019414;28;20451;-71
2021/07/04 02:06:42;;;;;;;1.87;1.70;;;;;;;17.02;94.91;100738.63;5019395;28;20447;-71
2021/07/04 02:09:09;;;;;;;4.30;2.73;;;;;;;17.01;95.08;100741.69;5018916;28;20463;-71
2021/07/04 02:11:35;;;;;;;3.00;2.13;;;;;;;17.02;95.45;100741.34;5019242;28;20483;-71
2021/07/04 02:14:02;;;;;;;2.67;2.13;;;;;;;17.02;96.69;100735.88;5016125;28;20842;-71
2021/07/04 02:16:30;;;;;;;5.30;2.83;;;;;;;17.10;98.32;100747.88;5016180;28;20451;-71
2021/07/04 02:18:56;;;;;;;3.47;2.40;;;;;;;17.04;100.00;100741.78;5015785;28;20587;-71
2021/07/04 02:21:23;;;;;;;4.10;3.53;;;;;;;17.09;99.99;100743.53;5022692;28;20451;-71
2021/07/04 02:23:49;;;;;;;2.73;2.20;;;;;;;17.18;99.88;100752.44;5016093;28;20452;-71
2021/07/04 02:26:16;;;;;;;2.20;1.90;;;;;;;17.21;100.00;100750.94;5015986;28;20444;-71
2021/07/04 02:28:42;;;;;;;3.80;2.70;;;;;;;17.24;100.00;100750.25;5015907;28;20463;-71
2021/07/04 02:31:09;;;;;;;2.13;1.80;;;;;;;17.22;100.00;100749.78;5015562;28;21005;-71
2021/07/04 02:33:36;;;;;;;2.97;2.30;;;;;;;17.25;100.00;100740.91;5015936;28;20447;-71
2021/07/04 02:36:03;;;;;;;3.30;2.50;;;;;;;17.28;100.00;100749.25;5015623;28;20444;-71
2021/07/04 02:38:31;;;;;;;3.97;2.47;;;;;;;17.28;100.00;100746.50;5015706;28;20483;-71
2021/07/04 02:40:57;;;;;;;2.67;2.00;;;;;;;17.25;100.00;100749.91;5015777;28;20444;-71
2021/07/04 02:43:26;;;;;;;3.00;2.27;;;;;;;17.27;100.00;100750.38;5015386;28;20443;-71
2021/07/04 02:45:54;;;;;;;3.67;2.50;;;;;;;17.27;100.00;100750.38;5015750;28;20444;-72
2021/07/04 02:48:21;;;;;;;2.03;1.60;;;;;;;17.26;100.00;100746.03;5015174;28;20507;-71
2021/07/04 02:50:49;;;;;;;4.20;2.43;;;;;;;17.23;100.00;100744.00;5015208;28;20992;-74
2021/07/04 02:53:15;;;;;;;3.03;1.93;;;;;;;17.28;100.00;100751.97;5015547;28;20439;-75
2021/07/04 02:55:43;;;;;;;2.80;2.50;;;;;;;17.28;98.74;100756.66;5015459;28;20444;-74
2021/07/04 02:58:09;;;;;;;3.97;2.80;;;;;;;17.22;96.65;100753.34;5015351;28;20460;-75
2021/07/04 03:00:37;;;;;;;2.53;2.10;;;;;;;17.18;96.10;100755.19;5015358;28;20443;-75
2021/07/04 03:03:03;;;;;;;2.67;2.10;;;;;;;17.08;96.22;100755.59;5015386;28;20539;-74
2021/07/04 03:05:30;;;;;;;3.40;2.47;;;;;;;17.08;96.66;100750.13;5015247;28;20452;-74
2021/07/04 03:07:58;;;;;;;2.07;1.80;;;;;;;17.03;98.24;100747.63;5015169;28;20460;-75
2021/07/04 03:10:24;;;;;;;3.57;2.33;;;;;;;17.00;99.84;100745.56;5015229;28;20821;-74
2021/07/04 03:12:51;;;;;;;3.80;2.60;;;;;;;17.03;100.00;100750.34;5014848;28;20491;-74
2021/07/04 03:15:18;;;;;;;3.73;2.57;;;;;;;16.98;100.00;100745.91;5015360;28;20486;-74
2021/07/04 03:17:45;;;;;;;1.87;1.67;;;;;;;16.90;100.00;100744.84;5014699;28;20464;-74
2021/07/04 03:20:14;;;;;;;4.40;2.40;;;;;;;16.96;100.00;100748.19;5015058;28;20443;-74
2021/07/04 03:22:40;;;;;;;2.30;2.10;;;;;;;16.97;100.00;100749.78;5014973;28;20808;-74
2021/07/04 03:25:10;;;;;;;3.40;2.40;;;;;;;16.95;100.00;100754.78;5014057;28;20454;-74
2021/07/04 03:27:37;;;;;;;3.13;2.60;;;;;;;16.84;100.00;100751.69;5014749;28;20475;-74
2021/07/04 03:30:04;;;;;;;3.27;2.40;;;;;;;16.87;100.00;100753.75;5014786;28;20475;-74
2021/07/04 03:32:31;;;;;;;3.03;2.00;;;;;;;16.81;100.00;100755.09;5014687;28;20484;-74
2021/07/04 03:34:57;;;;;;;3.80;2.70;;;;;;;16.81;100.00;100744.16;5014762;28;20455;-74
2021/07/04 03:37:24;;;;;;;2.80;2.10;;;;;;;16.81;100.00;100743.38;5014565;28;20475;-74
2021/07/04 03:39:50;;;;;;;4.13;2.50;;;;;;;16.76;100.00;100741.66;5014615;28;20432;-74
2021/07/04 03:42:18;;;;;;;3.70;2.03;;;;;;;16.72;100.00;100750.84;5014575;28;20448;-74
2021/07/04 03:44:44;;;;;;;2.73;2.10;;;;;;;16.64;100.00;100744.31;5014618;28;20444;-74
2021/07/04 03:47:11;;;;;;;2.93;1.83;;;;;;;16.69;100.00;100741.38;5014025;28;20455;-74
2021/07/04 03:49:37;;;;;;;5.10;2.77;;;;;;;16.70;100.00;100744.91;5014466;28;20451;-74
2021/07/04 03:52:05;;;;;;;5.27;2.57;;;;;;;16.68;100.00;100747.19;5014362;28;20490;-74
2021/07/04 03:54:31;;;;;;;3.80;1.97;;;;;;;16.68;100.00;100749.91;5014369;28;20443;-73
2021/07/04 03:56:58;;;;;;;2.47;2.27;;;;;;;16.61;100.00;100742.28;5014273;28;20447;-74
2021/07/04 03:59:25;;;;;;;4.33;3.20;;;;;;;16.55;100.00;100740.88;5014331;28;20444;-74
2021/07/04 04:01:52;;;;;;;2.73;2.33;;;;;;;16.58;100.00;100745.69;5014261;28;20819;-74
2021/07/04 04:04:18;;;;;;;2.80;2.40;;;;;;;16.55;98.32;100740.88;5014256;28;20446;-73
2021/07/04 04:06:45;;;;;;;4.03;3.23;;;;;;;16.50;96.96;100743.81;5014193;28;20539;-74
2021/07/04 04:09:11;;;;;;;3.93;1.93;;;;;;;16.37;96.85;100751.19;5014054;28;20471;-73
2021/07/04 04:11:37;;;;;;;2.30;1.93;;;;;;;16.35;97.10;100739.78;5014034;28;20859;-73
2021/07/04 04:14:04;;;;;;;2.93;2.40;;;;;;;16.35;99.15;100737.84;5018244;28;20438;-73
2021/07/04 04:16:32;;;;;;;3.57;2.33;;;;;;;16.34;100.00;100746.41;5016375;28;20784;-73
2021/07/04 04:18:58;;;;;;;3.73;2.70;;;;;;;16.36;100.00;100744.91;5013920;28;20467;-73
2021/07/04 04:21:24;;;;;;;4.23;2.67;;;;;;;16.42;100.00;100737.28;5013969;28;20451;-74
2021/07/04 04:23:51;;;;;;;3.90;2.33;;;;;;;16.46;100.00;100742.91;5013952;28;20455;-73
2021/07/04 04:26:17;;;;;;;3.23;2.27;;;;;;;16.49;100.00;100747.69;5013899;28;20444;-74
2021/07/04 04:28:44;;;;;;;3.00;2.33;;;;;;;16.50;100.00;100743.81;5014081;28;20464;-74
2021/07/04 04:31:10;;;;;;;4.10;2.63;;;;;;;16.56;100.00;100742.50;5013732;28;20448;-74
2021/07/04 04:33:38;;;;;;;3.43;2.60;;;;;;;16.60;100.00;100749.69;5013769;28;20482;-74
2021/07/04 04:36:05;;;;;;;3.63;2.33;;;;;;;16.58;100.00;100746.47;5013079;28;20443;-75
2021/07/04 04:38:31;;;;;;;5.30;2.73;;;;;;;16.61;100.00;100745.81;5013318;28;20479;-74
2021/07/04 04:40:57;;;;;;;5.60;2.97;;;;;;;16.67;100.00;100751.84;5013688;28;20443;-74
2021/07/04 04:43:24;;;;;;;2.70;1.83;;;;;;;16.80;100.00;100756.25;5013628;28;20447;-74
2021/07/04 04:45:50;;;;;;;3.13;2.67;;;;;;;16.94;100.00;100758.66;5013628;28;20448;-75
2021/07/04 04:48:17;;;;;;;3.30;2.10;;;;;;;17.01;100.00;100755.38;5013293;28;20475;-74
2021/07/04 04:50:45;;;;;;;5.03;3.27;;;;;;;17.07;100.00;100760.28;5013558;28;20451;-74
2021/07/04 04:53:11;;;;;;;4.67;3.10;;;;;;;17.13;100.00;100749.91;5013178;28;20977;-74
2021/07/04 04:55:37;;;;;;;3.07;2.00;;;;;;;17.20;100.00;100757.56;5013211;28;20941;-75
2021/07/04 04:58:04;;;;;;;3.07;2.70;;;;;;;17.25;100.00;100760.88;5013439;28;20452;-70
2021/07/04 05:00:30;;;;;;;2.40;2.20;;;;;;;17.30;100.00;100754.34;5013410;28;20436;-71
2021/07/04 05:03:03;;;;;;;3.00;2.23;;;;;;;17.36;100.00;100753.81;5013926;28;20448;-71
2021/07/04 05:05:29;;;;;;;3.60;2.70;;;;;;;17.44;100.00;100756.75;5013850;28;20523;-71
2021/07/04 05:07:57;;;;;;;3.13;1.90;;;;;;;17.55;100.00;100749.69;5013408;28;20464;-71
2021/07/04 05:10:24;;;;;;;3.73;3.20;;;;;;;17.62;100.00;100741.69;5013410;28;20447;-72
2021/07/04 05:12:50;;;;;;;2.70;2.13;;;;;;;17.73;100.00;100755.72;5013347;28;20483;-72
2021/07/04 05:15:17;;;;;;;4.03;2.40;;;;;;;17.81;100.00;100744.66;5013356;28;20466;-71
2021/07/04 05:17:44;;;;;;;3.40;1.90;;;;;;;17.92;100.00;100758.66;5013677;28;20464;-72
2021/07/04 05:20:11;;;;;;;3.20;2.30;;;;;;;18.02;100.00;100757.41;5013585;28;20452;-72
2021/07/04 05:22:38;;;;;;;5.73;3.47;;;;;;;18.12;100.00;100762.38;5013306;28;20451;-72
2021/07/04 05:25:08;;;;;;;6.10;3.30;;;;;;;18.25;100.00;100763.16;5013465;28;20432;-71
2021/07/04 05:27:34;;;;;;;3.97;2.87;;;;;;;18.34;100.00;100761.06;5013126;28;20460;-73
2021/07/04 05:30:02;;;;;;;4.83;2.80;;;;;;;18.45;100.00;100761.34;5012948;28;20975;-73
2021/07/04 05:32:28;;;;;;;2.93;2.20;;;;;;;18.48;100.00;100752.41;5012751;28;20487;-72
2021/07/04 05:34:55;;;;;;;5.60;3.50;;;;;;;18.58;100.00;100758.19;5013185;28;20452;-72
2021/07/04 05:37:22;;;;;;;4.33;3.43;;;;;;;18.72;100.00;100760.53;5012704;28;20977;-74
2021/07/04 05:39:48;;;;;;;4.43;3.47;;;;;;;18.82;100.00;100762.78;5013108;28;20498;-74
2021/07/04 05:42:16;;;;;;;5.27;3.80;;;;;;;18.85;100.00;100756.56;5013073;28;20436;-74
2021/07/04 05:44:42;;;;;;;4.20;3.00;;;;;;;18.96;100.00;100758.81;5013110;28;20451;-74
2021/07/04 05:47:09;;;;;;;4.70;3.73;;;;;;;19.03;100.00;100762.50;5012633;28;20451;-74
2021/07/04 05:49:37;;;;;;;5.83;3.33;;;;;;;19.08;100.00;100754.03;5017318;28;20847;-74
2021/07/04 05:52:05;;;;;;;4.60;3.40;;;;;;;19.09;100.00;100763.88;5016374;28;20855;-74
2021/07/04 05:54:31;;;;;;;3.20;2.50;;;;;;;19.13;100.00;100761.22;5016639;28;20442;-74
2021/07/04 05:56:58;;;;;;;7.60;3.50;;;;;;;19.16;100.00;100765.97;5016224;28;20796;-74
2021/07/04 05:59:26;;;;;;;4.70;3.20;;;;;;;19.17;100.00;100767.59;5016254;28;20957;-75
2021/07/04 06:01:52;;;;;;;7.50;4.17;;;;;;;19.28;100.00;100763.13;5016522;28;20448;-74
2021/07/04 06:04:18;;;;;;;6.53;4.23;;;;;;;19.28;100.00;100768.63;5016415;28;20444;-75
2021/07/04 06:06:46;;;;;;;5.27;3.87;;;;;;;19.38;100.00;100773.56;5016412;28;20467;-75
2021/07/04 06:09:12;;;;;;;4.50;3.30;;;;;;;19.45;100.00;100772.16;5022951;28;20483;-74
2021/07/04 06:11:38;;;;;;;6.50;4.50;;;;;;;19.50;100.00;100763.66;5016346;28;20444;-74
2021/07/04 06:14:05;;;;;;;6.57;3.23;;;;;;;19.54;100.00;100764.53;5016633;28;20444;-74
2021/07/04 06:16:33;;;;;;;3.53;2.80;;;;;;;19.57;100.00;100767.38;5016566;28;20451;-74
2021/07/04 06:18:59;;;;;;;3.57;2.63;;;;;;;19.58;100.00;100765.41;5016325;28;20471;-75
2021/07/04 06:21:25;;;;;;;4.87;2.40;;;;;;;19.63;100.00;100767.91;5016198;28;20455;-74
2021/07/04 06:23:52;;;;;;;5.30;3.57;;;;;;;19.66;100.00;100764.47;5016199;28;20444;-75
2021/07/04 06:26:18;;;;;;;4.33;3.27;;;;;;;19.71;100.00;100766.94;5016110;28;20450;-75
2021/07/04 06:28:45;;;;;;;4.40;3.10;;;;;;;19.76;100.00;100772.13;5015672;28;20981;-74
2021/07/04 06:31:11;;;;;;;15.23;3.10;;;;;;;19.80;99.78;100766.72;5016022;28;20448;-75
2021/07/04 06:33:39;;;;;;;2.63;2.30;;;;;;;19.82;98.29;100756.94;5015862;28;20490;-75
2021/07/04 06:36:06;;;;;;;3.60;2.50;;;;;;;19.83;96.98;100760.50;5015897;28;20451;-74
2021/07/04 06:38:32;;;;;;;4.67;2.87;;;;;;;19.86;96.86;100760.56;5015560;28;20452;-74
2021/07/04 06:40:59;;;;;;;2.40;2.20;;;;;;;19.86;96.79;100766.06;5015752;28;20451;-74
2021/07/04 06:43:25;;;;;;;4.50;3.20;;;;;;;19.88;96.08;100769.28;5015842;28;20444;-74
2021/07/04 06:45:53;;;;;;;4.10;2.73;;;;;;;19.91;96.12;100763.03;5015762;28;20875;-73
2021/07/04 06:48:20;;;;;;;3.27;2.33;;;;;;;20.00;95.99;100759.28;5015485;28;20475;-73
2021/07/04 06:50:48;;;;;;;3.60;2.67;;;;;;;20.04;95.27;100760.16;5015422;28;20504;-73
2021/07/04 06:53:14;;;;;;;4.60;3.10;;;;;;;20.07;93.29;100751.19;5015467;28;20488;-74
2021/07/04 06:55:41;;;;;;;4.23;2.90;;;;;;;20.05;88.21;100751.53;5015227;28;20954;-74
2021/07/04 06:58:07;;;;;;;3.00;1.93;;;;;;;20.20;86.50;100754.59;5015077;28;21044;-73
2021/07/04 07:00:33;;;;;;;3.40;2.30;;;;;;;20.36;85.75;100755.31;5015170;28;20436;-75
2021/07/04 07:03:00;;;;;;;4.60;2.80;;;;;;;20.46;86.09;100757.50;5015376;28;20809;-75
2021/07/04 07:05:27;;;;;;;4.10;2.87;;;;;;;20.50;81.61;100752.88;5014990;28;20929;-75
2021/07/04 07:07:54;;;;;;;2.90;2.33;;;;;;;20.62;80.58;100746.41;5015026;28;21000;-74
2021/07/04 07:10:21;;;;;;;3.10;2.13;;;;;;;20.73;82.87;100750.16;5015141;28;20451;-75
2021/07/04 07:12:48;;;;;;;2.57;2.20;;;;;;;20.78;85.21;100749.84;5015047;28;20487;-75
2021/07/04 07:15:15;;;;;;;2.40;1.90;;;;;;;20.81;87.04;100748.34;5014733;28;20953;-75
2021/07/04 07:17:42;;;;;;;6.83;2.60;;;;;;;20.82;85.51;100739.69;5015065;28;20468;-75
2021/07/04 07:20:09;;;;;;;4.13;2.07;;;;;;;20.84;83.27;100742.88;5015038;28;20790;-75
2021/07/04 07:22:36;;;;;;;4.13;2.20;;;;;;;20.87;81.93;100736.63;5014986;28;20472;-75
2021/07/04 07:25:04;;;;;;;2.57;2.27;;;;;;;20.89;79.02;100745.34;5014662;28;20957;-75
2021/07/04 07:27:31;;;;;;;1.60;1.50;;;;;;;20.97;79.45;100740.72;5014823;28;20483;-75
2021/07/04 07:29:58;;;;;;;2.23;1.93;;;;;;;21.05;77.45;100741.66;5015100;28;20447;-75
2021/07/04 07:32:25;;;;;;;1.63;1.53;;;;;;;21.14;74.93;100733.94;5020148;28;20498;-74
2021/07/04 07:34:52;;;;;;;2.30;2.03;;;;;;;21.21;76.88;100739.56;5034564;28;20547;-75
2021/07/04 07:37:19;;;;;;;4.13;1.63;;;;;;;21.24;75.73;100732.50;5034407;28;20463;-75
2021/07/04 07:39:45;;;;;;;2.50;2.07;;;;;;;21.39;68.53;100740.66;5034174;28;21078;-74
2021/07/04 07:42:13;;;;;;;3.13;2.17;;;;;;;21.70;68.59;100737.94;5034362;28;20451;-74
2021/07/04 07:44:40;;;;;;;3.03;1.80;;;;;;;21.90;69.57;100733.88;5034092;28;20953;-75
2021/07/04 07:47:06;;;;;;;3.13;2.20;;;;;;;21.97;68.59;100733.19;5034006;28;20443;-74
2021/07/04 07:49:33;;;;;;;3.60;2.33;;;;;;;22.06;67.25;100725.41;5034339;28;20436;-74
2021/07/04 07:52:00;;;;;;;6.67;2.20;;;;;;;22.12;65.58;100726.69;5034336;28;20450;-74
2021/07/04 07:54:27;;;;;;;2.23;1.90;;;;;;;22.25;64.49;100719.75;5034075;28;20495;-74
2021/07/04 07:56:54;;;;;;;3.00;2.43;;;;;;;22.31;62.52;100723.78;5034175;28;20455;-73
2021/07/04 07:59:22;;;;;;;3.00;2.23;;;;;;;22.37;64.34;100727.78;5033958;28;20459;-73
2021/07/04 08:01:48;;;;;;;3.30;2.00;;;;;;;22.48;66.83;100722.34;5034024;28;20449;-74
2021/07/04 08:04:15;;;;;;;3.03;2.13;;;;;;;22.41;67.55;100723.09;5033963;28;20439;-73
2021/07/04 08:06:42;;;;;;;4.20;2.63;;;;;;;22.48;70.77;100721.56;5040825;28;20439;-73
2021/07/04 08:09:08;;;;;;;4.97;2.03;;;;;;;22.44;75.35;100715.19;5033701;28;21006;-74
2021/07/04 08:11:35;;;;;;;3.20;1.93;;;;;;;22.31;74.75;100714.66;5033196;28;20447;-73
2021/07/04 08:14:01;;;;;;;3.43;2.17;;;;;;;22.30;73.78;100708.38;5033765;28;20485;-73
2021/07/04 08:16:29;;;;;;;1.90;1.80;;;;;;;22.38;75.56;100703.72;5033864;28;20443;-73
2021/07/04 08:18:55;;;;;;;5.73;2.10;;;;;;;22.37;75.33;100696.63;5030215;28;20468;-76
2021/07/04 08:21:22;;;;;;;2.80;2.23;;;;;;;22.46;73.38;100697.09;5023271;28;20455;-74
2021/07/04 08:23:48;;;;;;;1.93;1.70;;;;;;;22.62;74.16;100694.91;5025748;28;20439;-76
2021/07/04 08:26:16;;;;;;;3.47;2.47;;;;;;;22.78;73.22;100691.88;5026501;28;20455;-74
2021/07/04 08:28:42;;;;;;;2.90;2.40;;;;;;;22.91;70.72;100692.41;5024004;28;20558;-77
2021/07/04 08:31:08;;;;;;;2.23;2.03;;;;;;;23.08;71.07;100693.72;5021380;28;20431;-76
2021/07/04 08:33:36;;;;;;;3.00;2.07;;;;;;;23.15;65.13;100711.16;5033126;28;21026;-76
2021/07/04 08:36:03;;;;;;;5.80;2.70;;;;;;;23.24;61.42;100699.78;5029075;28;20443;-79
2021/07/04 08:38:29;;;;;;;2.90;2.30;;;;;;;23.31;61.00;100701.78;5027690;28;20464;-79
2021/07/04 08:40:56;;;;;;;4.77;2.27;;;;;;;23.51;61.10;100694.81;5027941;28;20443;-78
2021/07/04 08:43:28;;;;;;;2.03;1.93;;;;;;;23.62;60.15;100690.09;5026690;28;20816;-78
2021/07/04 08:45:55;;;;;;;3.30;2.17;;;;;;;23.70;57.73;100699.28;5025391;28;20454;-79
2021/07/04 08:48:21;;;;;;;5.00;2.43;;;;;;;23.75;57.44;100684.28;5018430;28;20487;-79
2021/07/04 08:50:49;;;;;;;2.20;1.97;;;;;;;23.72;58.74;100683.06;5034062;28;20451;-78
2021/07/04 08:53:16;;;;;;;3.47;2.43;;;;;;;23.77;61.36;100690.19;5019330;28;20491;-78
2021/07/04 08:55:43;;;;;;;3.60;2.07;;;;;;;23.75;62.02;100682.31;5019824;28;20444;-79
2021/07/04 08:58:09;;;;;;;4.27;2.87;;;;;;;23.76;58.78;100678.34;5020314;28;20483;-78
2021/07/04 09:00:36;;;;;;;3.47;2.40;;;;;;;23.80;62.24;100676.38;5020250;28;20447;-79
2021/07/04 09:03:23;;;;;;;2.97;2.40;;;;;;;23.79;64.65;100677.56;5040424;28;20443;-79
2021/07/04 09:05:50;;;;;;;2.90;2.20;;;;;;;23.76;64.49;100678.34;5039958;28;20419;-79
2021/07/04 09:08:20;;;;;;;2.20;1.90;;;;;;;23.72;65.07;100676.75;5039649;28;20467;-79
2021/07/04 09:11:08;;;;;;;1.70;1.60;;;;;;;23.63;64.46;100679.84;5039877;28;20454;-79
2021/07/04 09:13:35;;;;;;;3.20;2.17;;;;;;;23.60;63.41;100677.88;5039948;28;20467;-79
2021/07/04 09:16:05;;;;;;;3.10;2.17;;;;;;;23.64;63.45;100673.13;5041338;28;20447;-79
2021/07/04 09:18:32;;;;;;;3.20;2.43;;;;;;;23.71;60.04;100669.63;5040268;28;20475;-79
2021/07/04 09:21:00;;;;;;;5.93;2.40;;;;;;;23.82;61.33;100676.81;5041450;28;20481;-79
2021/07/04 09:23:34;;;;;;;3.27;2.17;;;;;;;23.88;61.28;100672.47;5043622;28;21203;-78
2021/07/04 09:26:00;;;;;;;2.10;1.90;;;;;;;23.99;62.12;100666.19;5045221;28;20454;-79
2021/07/04 09:28:27;;;;;;;2.70;2.27;;;;;;;24.11;62.02;100674.13;5042169;28;20466;-79
2021/07/04 09:30:55;;;;;;;2.90;2.33;;;;;;;24.22;62.48;100655.59;5042027;28;20531;-79
2021/07/04 09:33:24;;;;;;;2.53;2.33;;;;;;;24.41;58.27;100663.53;5040701;28;20573;-79
2021/07/04 09:35:57;;;;;;;3.43;2.20;;;;;;;24.55;58.73;100661.97;5040851;28;20458;-79
2021/07/04 09:38:29;;;;;;;2.40;2.20;;;;;;;24.66;58.05;100654.47;5040771;28;20466;-78
2021/07/04 09:40:55;;;;;;;3.43;2.50;;;;;;;24.75;58.00;100654.09;5025770;28;20443;-78
2021/07/04 09:43:23;;;;;;;2.90;2.13;;;;;;;24.87;57.62;100651.69;5021214;28;20455;-79
2021/07/04 09:45:55;;;;;;;3.53;2.53;;;;;;;24.99;57.51;100649.69;5020612;28;20443;-79
2021/07/04 09:48:24;;;;;;;2.90;2.60;;;;;;;25.16;56.89;100651.69;5020543;28;20515;-78
2021/07/04 09:50:53;;;;;;;2.47;2.27;;;;;;;25.30;56.83;100653.63;5021341;28;20480;-78
2021/07/04 09:53:22;;;;;;;3.77;3.10;;;;;;;25.46;52.84;100647.66;5019338;28;20479;-78
2021/07/04 09:55:51;;;;;;;2.40;2.20;;;;;;;25.49;48.72;100641.28;5017779;28;20868;-78
2021/07/04 09:58:20;;;;;;;2.27;2.03;;;;;;;25.66;50.41;100643.19;5017254;28;20459;-78
2021/07/04 10:00:47;;;;;;;2.20;1.90;;;;;;;25.75;50.75;100643.56;5018745;28;20455;-78
2021/07/04 10:03:18;;;;;;;3.63;2.40;;;;;;;25.95;50.01;100643.13;5021335;28;20448;-74
2021/07/04 10:06:00;;;;;;;2.87;2.47;;;;;;;26.09;48.82;100634.69;5023516;28;20435;-72
2021/07/04 10:08:28;;;;;;;2.87;2.20;;;;;;;26.24;49.39;100641.72;5017574;28;20471;-73
2021/07/04 10:10:58;;;;;;;2.90;2.30;;;;;;;26.29;49.31;100637.72;5016364;28;20543;-73
2021/07/04 10:13:26;;;;;;;2.20;2.00;;;;;;;26.32;49.07;100629.38;5016347;28;20922;-73
2021/07/04 10:15:53;;;;;;;3.77;2.27;;;;;;;26.48;50.58;100628.13;5015969;28;20491;-75
2021/07/04 10:18:21;;;;;;;3.60;1.97;;;;;;;26.46;45.72;100630.50;5016177;28;20555;-74
2021/07/04 10:20:49;;;;;;;2.43;2.23;;;;;;;26.44;45.53;100632.91;5028740;28;20447;-74
2021/07/04 10:23:17;;;;;;;2.90;2.10;;;;;;;26.36;46.38;100630.16;5035867;28;20482;-77
2021/07/04 10:25:44;;;;;;;2.73;1.90;;;;;;;26.33;45.63;100628.19;5035520;28;20967;-74
2021/07/04 10:28:15;;;;;;;3.17;2.20;;;;;;;26.40;49.36;100630.91;5035205;28;20491;-75
2021/07/04 10:30:42;;;;;;;3.37;2.53;;;;;;;26.48;47.48;100615.00;5035662;28;20470;-76
2021/07/04 10:33:32;;;;;;;1.73;1.63;;;;;;;26.60;47.04;100613.72;5035596;28;20450;-76
2021/07/04 10:36:15;;;;;;;3.47;2.80;;;;;;;26.64;44.20;100608.91;5034704;28;20910;-75
2021/07/04 10:38:55;;;;;;;3.70;2.07;;;;;;;26.77;47.13;100617.53;5035609;28;20546;-74
2021/07/04 10:41:25;;;;;;;2.73;2.00;;;;;;;26.90;46.26;100607.47;5035622;28;20522;-74
2021/07/04 10:44:05;;;;;;;2.57;2.30;;;;;;;27.01;46.10;100610.16;5035547;28;20526;-74
2021/07/04 10:47:04;;;;;;;3.53;3.00;;;;;;;27.09;47.69;100601.38;5035642;28;20435;-75
2021/07/04 10:49:47;;;;;;;3.60;2.10;;;;;;;27.25;47.74;100600.78;5035452;28;20435;-75
2021/07/04 10:52:17;;;;;;;2.20;2.00;;;;;;;27.40;49.57;100599.44;5035085;28;20932;-74
2021/07/04 10:54:51;;;;;;;2.23;1.80;;;;;;;27.55;49.83;100602.03;5031243;28;20563;-74
2021/07/04 10:57:21;;;;;;;2.80;2.33;;;;;;;27.59;48.69;100611.13;5015359;28;20490;-74
2021/07/04 11:00:17;;;;;;;2.60;2.10;;;;;;;27.56;46.11;100600.81;5015476;28;20436;-74
2021/07/04 11:02:46;;;;;;;2.90;2.30;;;;;;;27.46;44.51;100594.19;5009692;28;20460;-74
2021/07/04 11:05:13;;;;;;;3.50;1.90;;;;;;;27.42;47.23;100602.56;5015331;28;20450;-74
2021/07/04 11:08:06;;;;;;;3.87;2.80;;;;;;;27.40;47.79;100596.66;5015099;28;20468;-74
2021/07/04 11:10:35;;;;;;;3.13;2.80;;;;;;;27.32;47.42;100595.16;5015305;28;20447;-75
2021/07/04 11:13:41;;;;;;;3.60;2.00;;;;;;;27.14;44.63;100600.91;5015293;28;20483;-75
2021/07/04 11:16:17;;;;;;;4.30;2.27;;;;;;;27.10;45.03;100593.81;5006241;28;20466;-74
2021/07/04 11:18:47;;;;;;;2.20;1.93;;;;;;;26.96;46.05;100593.91;5015099;28;20466;-75
2021/07/04 11:21:16;;;;;;;2.40;2.00;;;;;;;26.91;46.41;100590.38;5015309;28;20466;-75
2021/07/04 11:23:43;;;;;;;2.70;2.23;;;;;;;26.81;45.69;100585.72;5015230;28;20451;-75
2021/07/04 11:26:15;;;;;;;2.20;1.87;;;;;;;26.76;46.81;100588.97;5015086;28;20456;-74